Time;durP1;ratioP1;P1;durP2;ratioP2;P2;SDS_P1;SDS_P2;PMS_P1;PMS_P2;Temp;Humidity;BMP_temperature;BMP_pressure;BME280_temperature;BME280_humidity;BME280_pressure;Samples;Min_cycle;Max_cycle;Signal;HPM_P1;HPM_P2
2023/08/20 00:01:14;;;;;;;8.88;2.80;;;;;;;;;;5056374;28;20064;-35
2023/08/20 00:03:40;;;;;;;12.25;2.53;;;;;;;;;;5056094;28;20353;-35
2023/08/20 00:06:06;;;;;;;12.05;2.88;;;;;;;;;;5055603;28;20013;-35
2023/08/20 00:08:31;;;;;;;9.10;2.75;;;;;;;;;;5056234;28;20055;-35
2023/08/20 00:10:56;;;;;;;10.23;2.80;;;;;;;;;;5055818;28;20020;-35
2023/08/20 00:13:21;;;;;;;7.43;2.70;;;;;;;;;;5055668;28;20051;-35
2023/08/20 00:15:47;;;;;;;10.93;2.92;;;;;;;;;;5056106;28;20049;-35
2023/08/20 00:18:12;;;;;;;14.98;3.13;;;;;;;;;;5055584;28;20530;-35
2023/08/20 00:20:37;;;;;;;8.18;2.50;;;;;;;;;;5054999;28;20021;-35
2023/08/20 00:23:03;;;;;;;8.48;2.60;;;;;;;;;;5054396;28;20479;-35
2023/08/20 00:25:29;;;;;;;10.57;2.50;;;;;;;;;;5055994;28;20116;-35
2023/08/20 00:27:54;;;;;;;12.05;2.50;;;;;;;;;;5055556;28;20017;-35
2023/08/20 00:30:19;;;;;;;13.77;2.70;;;;;;;;;;5055583;28;20154;-36
2023/08/20 00:32:44;;;;;;;9.17;2.70;;;;;;;;;;5055824;28;20334;-35
2023/08/20 00:35:09;;;;;;;10.83;2.40;;;;;;;;;;5055044;28;20269;-35
2023/08/20 00:37:35;;;;;;;12.80;2.43;;;;;;;;;;5054399;28;20013;-35
2023/08/20 00:40:00;;;;;;;11.30;2.63;;;;;;;;;;5054658;28;20282;-35
2023/08/20 00:42:26;;;;;;;8.18;2.25;;;;;;;;;;5054982;28;20066;-36
2023/08/20 00:44:53;;;;;;;13.67;2.77;;;;;;;;;;5055103;28;20053;-35
2023/08/20 00:47:19;;;;;;;8.80;2.40;;;;;;;;;;5055209;28;20665;-35
2023/08/20 00:49:45;;;;;;;13.68;2.88;;;;;;;;;;5055532;28;20013;-35
2023/08/20 00:52:12;;;;;;;9.98;2.60;;;;;;;;;;5054108;28;20017;-35
2023/08/20 00:54:39;;;;;;;12.02;2.55;;;;;;;;;;5055125;28;20064;-35
2023/08/20 00:57:04;;;;;;;13.80;2.70;;;;;;;;;;5054871;28;20021;-35
2023/08/20 00:59:30;;;;;;;8.48;2.50;;;;;;;;;;5055237;28;20032;-35
2023/08/20 01:01:55;;;;;;;11.70;2.55;;;;;;;;;;5054692;28;20021;-35
2023/08/20 01:04:20;;;;;;;10.55;2.40;;;;;;;;;;5055270;28;20511;-35
2023/08/20 01:07:02;;;;;;;11.53;2.70;;;;;;;;;;5054620;28;20379;-34
2023/08/20 01:09:33;;;;;;;9.17;4.80;;;;;;;;;;5054884;28;20259;-36
2023/08/20 01:11:59;;;;;;;12.25;3.15;;;;;;;;;;5054357;28;20049;-35
2023/08/20 01:14:25;;;;;;;9.55;2.45;;;;;;;;;;5054502;28;20458;-35
2023/08/20 01:16:50;;;;;;;8.77;2.53;;;;;;;;;;5054183;28;20021;-34
2023/08/20 01:19:19;;;;;;;11.43;2.57;;;;;;;;;;5054375;28;20468;-35
2023/08/20 01:22:05;;;;;;;9.63;2.58;;;;;;;;;;5054796;28;20358;-35
2023/08/20 01:24:39;;;;;;;9.43;2.38;;;;;;;;;;5054301;28;20024;-35
2023/08/20 01:27:10;;;;;;;10.48;2.30;;;;;;;;;;5054490;28;20108;-35
2023/08/20 01:29:36;;;;;;;10.52;2.70;;;;;;;;;;5054158;28;20025;-34
2023/08/20 01:32:02;;;;;;;12.48;3.03;;;;;;;;;;5052903;28;20067;-35
2023/08/20 01:34:27;;;;;;;12.98;2.47;;;;;;;;;;5054078;28;20040;-34
2023/08/20 01:36:52;;;;;;;10.97;2.77;;;;;;;;;;5052865;28;20112;-35
2023/08/20 01:39:18;;;;;;;12.17;2.50;;;;;;;;;;5054092;28;20024;-34
2023/08/20 01:41:44;;;;;;;9.50;2.45;;;;;;;;;;5054193;28;20013;-34
2023/08/20 01:44:09;;;;;;;11.88;2.70;;;;;;;;;;5054180;28;20024;-34
2023/08/20 01:46:34;;;;;;;13.20;2.40;;;;;;;;;;5054452;28;20024;-34
2023/08/20 01:48:59;;;;;;;15.70;2.80;;;;;;;;;;5054155;28;20025;-35
2023/08/20 01:51:25;;;;;;;13.50;2.42;;;;;;;;;;5053878;28;20582;-35
2023/08/20 01:53:50;;;;;;;15.07;2.60;;;;;;;;;;5054355;28;20020;-35
2023/08/20 01:56:16;;;;;;;8.87;2.20;;;;;;;;;;5054017;28;20492;-34
2023/08/20 01:58:41;;;;;;;11.18;2.45;;;;;;;;;;5053913;28;20252;-34
2023/08/20 02:01:06;;;;;;;12.88;2.65;;;;;;;;;;5053628;28;20028;-34
2023/08/20 02:03:31;;;;;;;12.00;2.37;;;;;;;;;;5052287;28;20025;-35
2023/08/20 02:05:56;;;;;;;10.63;2.60;;;;;;;;;;5053591;28;20423;-35
2023/08/20 02:08:22;;;;;;;10.83;2.77;;;;;;;;;;5054128;28;20021;-35
2023/08/20 02:10:47;;;;;;;8.67;2.30;;;;;;;;;;5053897;28;20256;-35
2023/08/20 02:13:12;;;;;;;11.40;3.05;;;;;;;;;;5054080;28;20268;-35
2023/08/20 02:15:37;;;;;;;9.97;2.50;;;;;;;;;;5053466;28;20519;-35
2023/08/20 02:18:03;;;;;;;11.83;2.63;;;;;;;;;;5053679;28;20339;-35
2023/08/20 02:20:28;;;;;;;11.70;2.75;;;;;;;;;;5053317;28;20291;-35
2023/08/20 02:22:53;;;;;;;8.57;2.40;;;;;;;;;;5053349;28;20136;-35
2023/08/20 02:25:18;;;;;;;8.13;2.70;;;;;;;;;;5053264;28;20024;-35
2023/08/20 02:27:44;;;;;;;7.90;2.80;;;;;;;;;;5053598;28;20044;-35
2023/08/20 02:30:10;;;;;;;11.50;3.00;;;;;;;;;;5053552;28;20820;-35
2023/08/20 02:32:35;;;;;;;7.25;2.20;;;;;;;;;;5053221;28;20251;-35
2023/08/20 02:35:00;;;;;;;12.07;2.77;;;;;;;;;;5053343;28;20502;-35
2023/08/20 02:37:25;;;;;;;16.02;2.67;;;;;;;;;;5053462;28;20063;-35
2023/08/20 02:39:50;;;;;;;8.97;2.60;;;;;;;;;;5053200;28;20019;-35
2023/08/20 02:42:15;;;;;;;10.80;2.80;;;;;;;;;;5053667;28;20017;-35
2023/08/20 02:44:41;;;;;;;7.60;2.40;;;;;;;;;;5053469;28;20053;-34
2023/08/20 02:47:06;;;;;;;9.50;2.77;;;;;;;;;;5053193;28;20021;-34
2023/08/20 02:49:31;;;;;;;9.47;2.83;;;;;;;;;;5053660;28;20279;-35
2023/08/20 02:51:56;;;;;;;8.87;2.70;;;;;;;;;;5053328;28;20735;-35
2023/08/20 02:54:21;;;;;;;10.17;2.63;;;;;;;;;;5053123;28;20313;-35
2023/08/20 02:56:47;;;;;;;11.27;3.10;;;;;;;;;;5053364;28;20259;-35
2023/08/20 02:59:12;;;;;;;10.23;2.80;;;;;;;;;;5053035;28;20757;-34
2023/08/20 03:01:37;;;;;;;13.10;2.70;;;;;;;;;;5053229;28;20286;-35
2023/08/20 03:04:03;;;;;;;10.50;2.97;;;;;;;;;;5052977;28;20398;-34
2023/08/20 03:06:28;;;;;;;11.27;2.47;;;;;;;;;;5053219;28;20021;-34
2023/08/20 03:08:53;;;;;;;12.27;2.97;;;;;;;;;;5051686;28;20027;-34
2023/08/20 03:11:18;;;;;;;8.33;2.80;;;;;;;;;;5052389;28;20064;-34
2023/08/20 03:13:44;;;;;;;12.70;3.23;;;;;;;;;;5053215;28;20074;-34
2023/08/20 03:16:09;;;;;;;8.85;2.53;;;;;;;;;;5057151;28;20104;-34
2023/08/20 03:18:34;;;;;;;9.57;2.77;;;;;;;;;;5057303;28;20067;-35
2023/08/20 03:20:59;;;;;;;14.18;2.67;;;;;;;;;;5056923;28;20048;-35
2023/08/20 03:23:25;;;;;;;9.60;2.50;;;;;;;;;;5055316;28;20021;-35
2023/08/20 03:25:50;;;;;;;12.40;2.73;;;;;;;;;;5056903;28;20290;-35
2023/08/20 03:28:15;;;;;;;9.52;2.42;;;;;;;;;;5056508;28;20093;-35
2023/08/20 03:30:41;;;;;;;13.98;3.13;;;;;;;;;;5056743;28;20447;-34
2023/08/20 03:33:06;;;;;;;13.20;2.70;;;;;;;;;;5056431;28;20468;-34
2023/08/20 03:35:31;;;;;;;11.75;3.00;;;;;;;;;;5056390;28;20028;-35
2023/08/20 03:37:56;;;;;;;12.50;2.80;;;;;;;;;;5056919;28;20162;-34
2023/08/20 03:40:21;;;;;;;8.77;2.73;;;;;;;;;;5056233;28;20379;-34
2023/08/20 03:42:47;;;;;;;7.32;2.47;;;;;;;;;;5056181;28;20016;-34
2023/08/20 03:45:12;;;;;;;8.73;2.60;;;;;;;;;;5056480;28;20412;-34
2023/08/20 03:47:37;;;;;;;10.70;2.73;;;;;;;;;;5056142;28;20776;-34
2023/08/20 03:50:03;;;;;;;10.85;2.83;;;;;;;;;;5056395;28;20293;-35
2023/08/20 03:52:28;;;;;;;11.60;2.75;;;;;;;;;;5056368;28;20031;-34
2023/08/20 03:54:53;;;;;;;8.55;2.50;;;;;;;;;;5056011;28;20464;-34
2023/08/20 03:57:19;;;;;;;11.37;3.03;;;;;;;;;;5055957;28;20428;-34
2023/08/20 03:59:45;;;;;;;9.60;2.60;;;;;;;;;;5056191;28;20334;-34
2023/08/20 04:02:10;;;;;;;10.90;2.58;;;;;;;;;;5056104;28;20410;-34
2023/08/20 04:04:36;;;;;;;9.23;2.45;;;;;;;;;;5055826;28;20013;-34
2023/08/20 04:07:02;;;;;;;11.43;3.08;;;;;;;;;;5055783;28;20028;-34
2023/08/20 04:09:27;;;;;;;9.23;2.60;;;;;;;;;;5055747;28;20119;-34
2023/08/20 04:11:52;;;;;;;14.57;2.93;;;;;;;;;;5055907;28;20623;-35
2023/08/20 04:14:17;;;;;;;13.50;2.87;;;;;;;;;;5055701;28;20617;-35
2023/08/20 04:16:42;;;;;;;13.13;3.07;;;;;;;;;;5054374;28;20260;-35
2023/08/20 04:19:08;;;;;;;9.27;2.75;;;;;;;;;;5054384;28;20263;-34
2023/08/20 04:21:33;;;;;;;13.50;2.97;;;;;;;;;;5055504;28;20053;-34
2023/08/20 04:23:58;;;;;;;13.30;2.93;;;;;;;;;;5055763;28;20262;-34
2023/08/20 04:26:24;;;;;;;8.88;2.95;;;;;;;;;;5054434;28;20262;-34
2023/08/20 04:28:49;;;;;;;13.63;3.33;;;;;;;;;;5055717;28;20103;-35
2023/08/20 04:31:14;;;;;;;11.47;2.80;;;;;;;;;;5055278;28;20669;-35
2023/08/20 04:33:39;;;;;;;11.33;2.80;;;;;;;;;;5055854;28;20031;-34
2023/08/20 04:36:05;;;;;;;12.57;3.10;;;;;;;;;;5055225;28;20259;-35
2023/08/20 04:38:30;;;;;;;16.48;3.10;;;;;;;;;;5055462;28;20780;-35
2023/08/20 04:40:55;;;;;;;8.63;2.67;;;;;;;;;;5055000;28;20105;-35
2023/08/20 04:43:20;;;;;;;14.85;3.22;;;;;;;;;;5055089;28;20309;-33
2023/08/20 04:45:45;;;;;;;11.07;2.90;;;;;;;;;;5055322;28;20463;-34
2023/08/20 04:48:10;;;;;;;20.50;3.70;;;;;;;;;;5055081;28;20114;-34
2023/08/20 04:50:36;;;;;;;13.20;3.33;;;;;;;;;;5054996;28;20260;-35
2023/08/20 04:53:01;;;;;;;16.23;3.10;;;;;;;;;;5055043;28;20107;-34
2023/08/20 04:55:27;;;;;;;13.98;3.22;;;;;;;;;;5054903;28;20013;-34
2023/08/20 04:57:52;;;;;;;11.55;2.95;;;;;;;;;;5055410;28;20029;-34
2023/08/20 05:00:18;;;;;;;15.57;3.27;;;;;;;;;;5055276;28;20027;-34
2023/08/20 05:02:43;;;;;;;13.50;2.90;;;;;;;;;;5054766;28;20611;-34
2023/08/20 05:05:08;;;;;;;13.00;2.90;;;;;;;;;;5054942;28;20741;-35
2023/08/20 05:07:33;;;;;;;14.80;3.25;;;;;;;;;;5054604;28;20244;-35
2023/08/20 05:09:58;;;;;;;15.13;3.07;;;;;;;;;;5054971;28;20021;-35
2023/08/20 05:12:23;;;;;;;12.67;3.20;;;;;;;;;;5054391;28;20048;-35
2023/08/20 05:14:49;;;;;;;13.97;2.90;;;;;;;;;;5054529;28;20307;-35
2023/08/20 05:17:14;;;;;;;13.77;3.10;;;;;;;;;;5055071;28;20252;-35
2023/08/20 05:19:39;;;;;;;11.80;2.87;;;;;;;;;;5054446;28;20017;-35
2023/08/20 05:22:04;;;;;;;14.07;2.87;;;;;;;;;;5054616;28;20279;-35
2023/08/20 05:24:29;;;;;;;11.00;2.70;;;;;;;;;;5054287;28;20626;-35
2023/08/20 05:27:27;;;;;;;16.47;3.07;;;;;;;;;;5053959;28;20111;-35
2023/08/20 05:29:52;;;;;;;14.52;2.97;;;;;;;;;;5030832;28;20276;-34
2023/08/20 05:32:17;;;;;;;15.10;2.93;;;;;;;;;;5054172;28;20024;-34
2023/08/20 05:34:43;;;;;;;9.43;2.63;;;;;;;;;;5054337;28;20270;-34
2023/08/20 05:37:08;;;;;;;13.40;3.10;;;;;;;;;;5054317;28;20404;-34
2023/08/20 05:39:37;;;;;;;10.65;3.08;;;;;;;;;;5054247;28;20255;-35
2023/08/20 05:42:03;;;;;;;12.25;3.83;;;;;;;;;;5054429;28;20025;-35
2023/08/20 05:44:28;;;;;;;9.18;2.53;;;;;;;;;;5054528;28;20449;-35
2023/08/20 05:46:53;;;;;;;12.27;3.20;;;;;;;;;;5054442;28;20021;-35
2023/08/20 05:49:18;;;;;;;10.03;2.60;;;;;;;;;;5053939;28;20283;-35
2023/08/20 05:51:44;;;;;;;15.02;3.47;;;;;;;;;;5053711;28;20273;-34
2023/08/20 05:54:09;;;;;;;13.05;2.90;;;;;;;;;;5054024;28;20100;-35
2023/08/20 05:56:34;;;;;;;11.77;2.92;;;;;;;;;;5053677;28;20075;-34
2023/08/20 05:58:59;;;;;;;17.70;2.97;;;;;;;;;;5054310;28;20025;-34
2023/08/20 06:01:25;;;;;;;11.33;2.87;;;;;;;;;;5053615;28;20675;-34
2023/08/20 06:03:50;;;;;;;7.67;2.40;;;;;;;;;;5053522;28;20025;-34
2023/08/20 06:06:15;;;;;;;9.23;2.47;;;;;;;;;;5053546;28;20495;-35
2023/08/20 06:08:40;;;;;;;9.77;2.38;;;;;;;;;;5053549;28;20059;-35
2023/08/20 06:11:05;;;;;;;12.27;2.60;;;;;;;;;;5054189;28;20021;-35
2023/08/20 06:13:31;;;;;;;12.13;2.77;;;;;;;;;;5053546;28;20122;-35
2023/08/20 06:15:56;;;;;;;9.73;2.30;;;;;;;;;;5053504;28;20096;-35
2023/08/20 06:18:21;;;;;;;10.80;2.63;;;;;;;;;;5053405;28;20017;-35
2023/08/20 06:20:46;;;;;;;9.37;2.30;;;;;;;;;;5053298;28;20029;-35
2023/08/20 06:23:13;;;;;;;7.97;2.50;;;;;;;;;;5053997;28;20052;-36
2023/08/20 06:25:38;;;;;;;9.18;2.45;;;;;;;;;;5053672;28;20028;-35
2023/08/20 06:28:03;;;;;;;8.67;2.63;;;;;;;;;;5053859;28;20021;-35
2023/08/20 06:30:28;;;;;;;10.18;2.97;;;;;;;;;;5053468;28;20020;-35
2023/08/20 06:32:53;;;;;;;9.40;2.73;;;;;;;;;;5053315;28;20423;-35
2023/08/20 06:35:19;;;;;;;8.50;2.47;;;;;;;;;;5053261;28;20017;-35
2023/08/20 06:37:44;;;;;;;8.87;2.57;;;;;;;;;;5053596;28;20127;-35
2023/08/20 06:40:09;;;;;;;10.07;2.80;;;;;;;;;;5053792;28;20025;-35
2023/08/20 06:42:35;;;;;;;9.77;2.65;;;;;;;;;;5053351;28;20032;-35
2023/08/20 06:45:00;;;;;;;9.77;2.77;;;;;;;;;;5053188;28;20013;-36
2023/08/20 06:47:25;;;;;;;10.97;3.00;;;;;;;;;;5053469;28;20016;-36
2023/08/20 06:49:51;;;;;;;9.23;2.97;;;;;;;;;;5054910;28;20345;-35
2023/08/20 06:52:16;;;;;;;8.57;2.88;;;;;;;;;;5057458;28;20017;-36
2023/08/20 06:54:41;;;;;;;10.52;2.53;;;;;;;;;;5057458;28;20021;-35
2023/08/20 06:57:06;;;;;;;10.13;2.77;;;;;;;;;;5058197;28;20016;-35
2023/08/20 06:59:31;;;;;;;10.27;2.43;;;;;;;;;;5057105;28;20075;-35
2023/08/20 07:01:57;;;;;;;10.57;2.50;;;;;;;;;;5056989;28;20024;-36
2023/08/20 07:04:22;;;;;;;11.37;2.43;;;;;;;;;;5057075;28;20479;-36
2023/08/20 07:06:47;;;;;;;10.17;2.53;;;;;;;;;;5057012;28;20056;-35
2023/08/20 07:09:12;;;;;;;10.70;2.60;;;;;;;;;;5057491;28;20047;-36
2023/08/20 07:11:37;;;;;;;8.10;2.43;;;;;;;;;;5056896;28;20045;-36
2023/08/20 07:14:03;;;;;;;9.60;2.77;;;;;;;;;;5056819;28;20021;-36
2023/08/20 07:16:28;;;;;;;10.90;2.60;;;;;;;;;;5057338;28;20024;-36
2023/08/20 07:18:53;;;;;;;10.57;3.43;;;;;;;;;;5057422;28;20275;-36
2023/08/20 07:21:19;;;;;;;10.87;2.40;;;;;;;;;;5056583;28;20036;-36
2023/08/20 07:23:44;;;;;;;10.27;2.60;;;;;;;;;;5056920;28;20044;-36
2023/08/20 07:26:10;;;;;;;10.63;2.40;;;;;;;;;;5056877;28;20021;-36
2023/08/20 07:31:19;;;;;;;9.38;2.35;;;;;;;;;;5057175;28;20048;-34
2023/08/20 07:33:48;;;;;;;9.25;2.53;;;;;;;;;;5056991;28;20021;-34
2023/08/20 07:36:14;;;;;;;11.85;2.80;;;;;;;;;;5056287;28;20056;-35
2023/08/20 07:38:41;;;;;;;11.48;2.63;;;;;;;;;;5056663;28;20021;-36
2023/08/20 07:41:06;;;;;;;7.38;2.47;;;;;;;;;;5056526;28;20029;-35
2023/08/20 07:43:32;;;;;;;11.60;2.45;;;;;;;;;;5056253;28;20526;-35
2023/08/20 07:45:57;;;;;;;11.70;2.90;;;;;;;;;;5056528;28;20452;-35
2023/08/20 07:48:22;;;;;;;9.00;2.60;;;;;;;;;;5056234;28;20051;-35
2023/08/20 07:50:47;;;;;;;9.03;2.37;;;;;;;;;;5056154;28;20104;-35
2023/08/20 07:53:12;;;;;;;10.40;2.50;;;;;;;;;;5056066;28;20039;-35
2023/08/20 07:55:38;;;;;;;9.30;2.17;;;;;;;;;;5056579;28;20078;-35
2023/08/20 07:58:03;;;;;;;11.73;2.57;;;;;;;;;;5056023;28;20404;-35
2023/08/20 08:00:28;;;;;;;8.10;2.10;;;;;;;;;;5055903;28;20255;-35
2023/08/20 08:02:53;;;;;;;11.13;2.47;;;;;;;;;;5055927;28;20586;-35
2023/08/20 08:05:18;;;;;;;8.13;2.13;;;;;;;;;;5055862;28;20047;-35
2023/08/20 08:07:44;;;;;;;10.43;2.53;;;;;;;;;;5056408;28;20013;-35
2023/08/20 08:10:09;;;;;;;11.77;2.50;;;;;;;;;;5056282;28;20021;-35
2023/08/20 08:12:34;;;;;;;11.05;2.42;;;;;;;;;;5055554;28;20519;-35
2023/08/20 08:15:00;;;;;;;11.43;2.40;;;;;;;;;;5056001;28;20024;-35
2023/08/20 08:17:25;;;;;;;9.77;2.30;;;;;;;;;;5055938;28;20025;-35
2023/08/20 08:19:51;;;;;;;12.30;2.43;;;;;;;;;;5055631;28;20252;-35
2023/08/20 08:22:16;;;;;;;10.63;2.17;;;;;;;;;;5055605;28;20035;-35
2023/08/20 08:24:42;;;;;;;15.20;2.60;;;;;;;;;;5055756;28;20472;-35
2023/08/20 08:27:07;;;;;;;14.80;2.50;;;;;;;;;;5055453;28;20769;-35
2023/08/20 08:29:32;;;;;;;9.87;2.40;;;;;;;;;;5055611;28;20103;-35
2023/08/20 08:31:58;;;;;;;11.63;2.67;;;;;;;;;;5055951;28;20090;-36
2023/08/20 08:34:23;;;;;;;9.53;2.40;;;;;;;;;;5055930;28;20016;-36
2023/08/20 08:36:48;;;;;;;8.57;2.20;;;;;;;;;;5055818;28;20466;-35
2023/08/20 08:39:14;;;;;;;13.43;2.35;;;;;;;;;;5055267;28;20482;-35
2023/08/20 08:41:41;;;;;;;12.38;2.50;;;;;;;;;;5055331;28;20036;-35
2023/08/20 08:44:08;;;;;;;10.75;2.15;;;;;;;;;;5055439;28;20102;-35
2023/08/20 08:46:34;;;;;;;10.70;2.20;;;;;;;;;;5054076;28;20549;-35
2023/08/20 08:49:00;;;;;;;9.30;2.40;;;;;;;;;;5055058;28;20025;-35
2023/08/20 08:51:25;;;;;;;12.80;2.37;;;;;;;;;;5055005;28;20027;-35
2023/08/20 08:53:51;;;;;;;6.80;1.92;;;;;;;;;;5054944;28;20456;-35
2023/08/20 08:56:16;;;;;;;8.43;1.90;;;;;;;;;;5055097;28;20095;-35
2023/08/20 08:58:42;;;;;;;8.43;2.10;;;;;;;;;;5055140;28;20063;-35
2023/08/20 09:01:07;;;;;;;7.25;1.95;;;;;;;;;;5055030;28;20508;-36
2023/08/20 09:03:32;;;;;;;11.98;2.25;;;;;;;;;;5055039;28;20048;-35
2023/08/20 09:06:03;;;;;;;7.80;1.85;;;;;;;;;;5054984;28;20017;-35
2023/08/20 09:08:32;;;;;;;8.68;1.80;;;;;;;;;;5054931;28;20426;-35
2023/08/20 09:10:59;;;;;;;7.90;2.10;;;;;;;;;;5054843;28;20028;-34
2023/08/20 09:13:26;;;;;;;7.85;2.00;;;;;;;;;;5053809;28;20080;-35
2023/08/20 09:15:52;;;;;;;10.60;2.00;;;;;;;;;;5054533;28;20036;-35
2023/08/20 09:18:17;;;;;;;7.03;1.70;;;;;;;;;;5054385;28;20017;-35
2023/08/20 09:20:42;;;;;;;7.65;1.90;;;;;;;;;;5054610;28;20029;-35
2023/08/20 09:23:12;;;;;;;8.07;1.83;;;;;;;;;;5054340;28;20020;-35
2023/08/20 09:25:37;;;;;;;8.40;1.90;;;;;;;;;;5054280;28;20053;-35
2023/08/20 09:28:03;;;;;;;6.90;1.77;;;;;;;;;;5054849;28;20102;-35
2023/08/20 09:30:28;;;;;;;7.00;2.00;;;;;;;;;;5054447;28;20020;-35
2023/08/20 09:33:23;;;;;;;7.83;1.93;;;;;;;;;;5054184;28;20017;-35
2023/08/20 09:35:49;;;;;;;8.43;2.08;;;;;;;;;;5041111;28;20033;-36
2023/08/20 09:38:14;;;;;;;5.47;1.75;;;;;;;;;;5054117;28;20044;-34
2023/08/20 09:40:40;;;;;;;8.30;2.13;;;;;;;;;;5053955;28;20395;-35
2023/08/20 09:43:08;;;;;;;7.78;1.80;;;;;;;;;;5054276;28;20263;-35
2023/08/20 09:45:33;;;;;;;11.30;2.47;;;;;;;;;;5054222;28;20021;-35
2023/08/20 09:47:59;;;;;;;8.88;2.05;;;;;;;;;;5054184;28;20020;-35
2023/08/20 09:50:25;;;;;;;8.32;2.13;;;;;;;;;;5053843;28;20052;-35
2023/08/20 09:53:11;;;;;;;10.10;2.20;;;;;;;;;;5054151;28;20021;-35
2023/08/20 09:55:38;;;;;;;6.45;1.83;;;;;;;;;;5053251;28;20094;-35
2023/08/20 09:58:04;;;;;;;10.10;2.17;;;;;;;;;;5053675;28;20017;-35
2023/08/20 10:00:30;;;;;;;10.68;2.00;;;;;;;;;;5053841;28;20154;-35
2023/08/20 10:02:56;;;;;;;7.53;1.92;;;;;;;;;;5053720;28;20357;-35
2023/08/20 10:05:22;;;;;;;5.97;1.70;;;;;;;;;;5053659;28;20017;-35
2023/08/20 10:07:48;;;;;;;7.63;1.80;;;;;;;;;;5053565;28;20048;-35
2023/08/20 10:10:14;;;;;;;6.80;1.50;;;;;;;;;;5053828;28;20013;-35
2023/08/20 10:12:40;;;;;;;9.10;1.83;;;;;;;;;;5053444;28;20140;-35
2023/08/20 10:15:07;;;;;;;7.10;1.75;;;;;;;;;;5053479;28;20043;-35
2023/08/20 10:17:32;;;;;;;6.90;1.65;;;;;;;;;;5054023;28;20021;-35
2023/08/20 10:19:58;;;;;;;8.63;2.15;;;;;;;;;;5053416;28;20455;-35
2023/08/20 10:22:32;;;;;;;6.00;1.60;;;;;;;;;;5053649;28;20032;-35
2023/08/20 10:24:59;;;;;;;6.70;1.98;;;;;;;;;;5052176;28;20071;-35
2023/08/20 10:27:31;;;;;;;5.88;1.70;;;;;;;;;;5053719;28;20024;-36
2023/08/20 10:29:58;;;;;;;8.43;1.60;;;;;;;;;;5053285;28;20024;-35
2023/08/20 10:32:42;;;;;;;7.43;1.67;;;;;;;;;;5053332;28;20090;-35
2023/08/20 10:35:08;;;;;;;6.30;1.50;;;;;;;;;;5053513;28;20029;-35
2023/08/20 10:37:34;;;;;;;6.88;1.42;;;;;;;;;;5053238;28;20017;-35
2023/08/20 10:39:59;;;;;;;5.82;1.48;;;;;;;;;;5053522;28;20037;-35
2023/08/20 10:42:28;;;;;;;6.53;1.53;;;;;;;;;;5053409;28;20459;-35
2023/08/20 10:44:56;;;;;;;4.32;1.30;;;;;;;;;;5053338;28;20286;-35
2023/08/20 10:47:22;;;;;;;6.53;1.50;;;;;;;;;;5053689;28;20052;-35
2023/08/20 10:49:51;;;;;;;7.85;1.80;;;;;;;;;;5053465;28;20028;-36
2023/08/20 10:52:17;;;;;;;6.72;1.60;;;;;;;;;;5053423;28;20082;-35
2023/08/20 10:54:42;;;;;;;5.82;1.23;;;;;;;;;;5053422;28;20173;-35
2023/08/20 10:57:08;;;;;;;10.67;2.00;;;;;;;;;;5053346;28;20376;-36
2023/08/20 10:59:34;;;;;;;7.38;1.92;;;;;;;;;;5053398;28;20406;-36
2023/08/20 11:02:00;;;;;;;8.30;1.92;;;;;;;;;;5051797;28;20549;-35
2023/08/20 11:04:32;;;;;;;9.10;1.80;;;;;;;;;;5051107;28;20045;-36
2023/08/20 11:06:57;;;;;;;4.97;1.70;;;;;;;;;;5051208;28;20025;-36
2023/08/20 11:09:23;;;;;;;8.82;1.80;;;;;;;;;;5051296;28;20102;-36
2023/08/20 11:11:49;;;;;;;8.80;1.60;;;;;;;;;;5050805;28;20045;-36
2023/08/20 11:14:15;;;;;;;5.55;1.70;;;;;;;;;;5051381;28;20347;-36
2023/08/20 11:16:41;;;;;;;6.75;1.55;;;;;;;;;;5051491;28;20097;-36
2023/08/20 11:19:08;;;;;;;8.52;2.08;;;;;;;;;;5053176;28;20025;-36
2023/08/20 11:21:38;;;;;;;8.27;1.80;;;;;;;;;;5053087;28;20053;-36
2023/08/20 11:24:03;;;;;;;6.43;1.63;;;;;;;;;;5052819;28;20013;-36
2023/08/20 11:26:29;;;;;;;5.95;1.58;;;;;;;;;;5052792;28;20028;-36
2023/08/20 11:28:54;;;;;;;6.72;1.67;;;;;;;;;;5052765;28;20024;-36
2023/08/20 11:31:19;;;;;;;7.87;1.83;;;;;;;;;;5052997;28;20024;-35
2023/08/20 11:33:45;;;;;;;6.77;1.80;;;;;;;;;;5053125;28;20781;-35
2023/08/20 11:36:10;;;;;;;7.00;1.60;;;;;;;;;;5054643;28;20255;-35
2023/08/20 11:38:36;;;;;;;7.23;1.57;;;;;;;;;;5055700;28;20021;-35
2023/08/20 11:41:01;;;;;;;5.50;1.70;;;;;;;;;;5057036;28;20657;-35
2023/08/20 11:43:29;;;;;;;9.15;1.80;;;;;;;;;;5056515;28;20025;-35
2023/08/20 11:45:54;;;;;;;6.47;1.65;;;;;;;;;;5056248;28;20024;-35
2023/08/20 11:48:23;;;;;;;9.10;1.80;;;;;;;;;;5056216;28;20021;-35
2023/08/20 11:50:51;;;;;;;6.10;1.70;;;;;;;;;;5055038;28;20025;-35
2023/08/20 11:53:20;;;;;;;6.70;1.60;;;;;;;;;;5054989;28;20028;-35
2023/08/20 11:55:46;;;;;;;7.30;1.73;;;;;;;;;;5054829;28;20021;-35
2023/08/20 11:58:12;;;;;;;6.50;1.77;;;;;;;;;;5055404;28;20482;-35
2023/08/20 12:00:37;;;;;;;5.43;1.55;;;;;;;;;;5055021;28;20027;-35
2023/08/20 12:03:03;;;;;;;6.03;1.73;;;;;;;;;;5055187;28;20035;-35
2023/08/20 12:05:29;;;;;;;6.05;1.67;;;;;;;;;;5055493;28;20013;-36
2023/08/20 12:07:56;;;;;;;5.13;1.58;;;;;;;;;;5054847;28;20044;-35
2023/08/20 12:10:22;;;;;;;6.35;1.90;;;;;;;;;;5056094;28;20048;-35
2023/08/20 12:12:48;;;;;;;8.88;1.73;;;;;;;;;;5055618;28;20073;-35
2023/08/20 12:15:13;;;;;;;9.15;1.52;;;;;;;;;;5055799;28;20041;-35
2023/08/20 12:17:38;;;;;;;5.90;1.42;;;;;;;;;;5056057;28;20577;-35
2023/08/20 12:20:12;;;;;;;9.43;1.53;;;;;;;;;;5055730;28;20024;-35
2023/08/20 12:22:37;;;;;;;6.15;1.38;;;;;;;;;;5055787;28;20064;-35
2023/08/20 12:25:03;;;;;;;7.17;1.47;;;;;;;;;;5055582;28;20111;-35
2023/08/20 12:27:28;;;;;;;6.80;1.75;;;;;;;;;;5055463;28;20495;-35
2023/08/20 12:29:54;;;;;;;6.57;1.40;;;;;;;;;;5055636;28;20031;-35
2023/08/20 12:32:19;;;;;;;5.73;1.50;;;;;;;;;;5055434;28;20017;-35
2023/08/20 12:34:44;;;;;;;9.03;1.80;;;;;;;;;;5054175;28;20031;-36
2023/08/20 12:37:09;;;;;;;7.73;1.80;;;;;;;;;;5055643;28;20412;-36
2023/08/20 12:39:34;;;;;;;8.73;1.53;;;;;;;;;;5053926;28;20020;-36
2023/08/20 12:41:59;;;;;;;7.07;1.70;;;;;;;;;;5055708;28;20031;-35
2023/08/20 12:44:25;;;;;;;3.83;1.37;;;;;;;;;;5055133;28;20021;-36
2023/08/20 12:46:51;;;;;;;7.80;1.60;;;;;;;;;;5054682;28;20376;-35
2023/08/20 12:49:16;;;;;;;6.82;1.50;;;;;;;;;;5055004;28;20025;-36
2023/08/20 12:51:42;;;;;;;6.60;1.88;;;;;;;;;;5055335;28;20017;-36
2023/08/20 12:54:07;;;;;;;7.22;1.42;;;;;;;;;;5054924;28;20025;-36
2023/08/20 12:56:32;;;;;;;7.57;1.70;;;;;;;;;;5055206;28;20028;-36
2023/08/20 12:58:57;;;;;;;6.87;1.60;;;;;;;;;;5055157;28;20067;-35
2023/08/20 13:01:23;;;;;;;8.60;1.70;;;;;;;;;;5054748;28;20021;-35
2023/08/20 13:03:48;;;;;;;5.50;1.50;;;;;;;;;;5054990;28;20023;-36
2023/08/20 13:06:14;;;;;;;6.53;1.30;;;;;;;;;;5054772;28;20280;-37
2023/08/20 13:08:39;;;;;;;6.10;1.52;;;;;;;;;;5054902;28;20032;-35
2023/08/20 13:11:05;;;;;;;8.45;1.70;;;;;;;;;;5054304;28;20098;-35
2023/08/20 13:13:31;;;;;;;4.18;1.33;;;;;;;;;;5054623;28;20029;-35
2023/08/20 13:15:57;;;;;;;6.70;1.88;;;;;;;;;;5054796;28;20028;-35
2023/08/20 13:18:24;;;;;;;6.53;1.33;;;;;;;;;;5055081;28;20025;-35
2023/08/20 13:20:50;;;;;;;6.40;1.70;;;;;;;;;;5054337;28;20267;-36
2023/08/20 13:23:15;;;;;;;6.93;1.48;;;;;;;;;;5054987;28;20095;-36
2023/08/20 13:25:40;;;;;;;3.43;1.10;;;;;;;;;;5054969;28;20025;-35
2023/08/20 13:28:05;;;;;;;6.07;1.50;;;;;;;;;;5054908;28;20376;-36
2023/08/20 13:30:33;;;;;;;4.33;1.37;;;;;;;;;;5054527;28;20259;-36
2023/08/20 13:32:58;;;;;;;5.55;1.50;;;;;;;;;;5054515;28;20020;-35
2023/08/20 13:35:23;;;;;;;3.87;1.30;;;;;;;;;;5054211;28;20060;-36
2023/08/20 13:37:49;;;;;;;4.27;1.17;;;;;;;;;;5054099;28;20368;-36
2023/08/20 13:40:14;;;;;;;5.07;1.15;;;;;;;;;;5054463;28;20252;-36
2023/08/20 13:42:39;;;;;;;8.03;1.80;;;;;;;;;;5053758;28;20434;-35
2023/08/20 13:45:05;;;;;;;4.07;1.30;;;;;;;;;;5054532;28;20267;-35
2023/08/20 13:47:30;;;;;;;5.45;1.20;;;;;;;;;;5054239;28;20036;-35
2023/08/20 13:49:55;;;;;;;4.17;1.30;;;;;;;;;;5053918;28;20052;-35
2023/08/20 13:52:21;;;;;;;6.50;1.23;;;;;;;;;;5054188;28;20031;-35
2023/08/20 13:54:46;;;;;;;7.05;1.40;;;;;;;;;;5054114;28;20464;-35
2023/08/20 13:57:11;;;;;;;4.88;1.10;;;;;;;;;;5054053;28;20025;-36
2023/08/20 13:59:37;;;;;;;4.70;0.93;;;;;;;;;;5053504;28;20380;-35
2023/08/20 14:02:02;;;;;;;5.30;1.37;;;;;;;;;;5053798;28;20048;-35
2023/08/20 14:04:27;;;;;;;5.30;2.13;;;;;;;;;;5053666;28;20746;-36
2023/08/20 14:06:52;;;;;;;7.30;2.37;;;;;;;;;;5053667;28;20463;-35
2023/08/20 14:09:18;;;;;;;4.78;1.40;;;;;;;;;;5054758;28;20020;-35
2023/08/20 14:11:44;;;;;;;6.25;1.40;;;;;;;;;;5053636;28;20060;-36
2023/08/20 14:14:09;;;;;;;4.85;1.38;;;;;;;;;;5053805;28;20341;-36
2023/08/20 14:16:34;;;;;;;5.17;1.30;;;;;;;;;;5053589;28;20086;-35
2023/08/20 14:18:59;;;;;;;5.43;1.48;;;;;;;;;;5053753;28;20017;-35
2023/08/20 14:21:25;;;;;;;6.10;1.60;;;;;;;;;;5054072;28;20024;-36
2023/08/20 14:23:50;;;;;;;5.40;1.40;;;;;;;;;;5053396;28;20103;-35
2023/08/20 14:26:15;;;;;;;4.77;1.30;;;;;;;;;;5053432;28;20096;-35
2023/08/20 14:28:43;;;;;;;7.17;1.60;;;;;;;;;;5053695;28;20103;-36
2023/08/20 14:31:08;;;;;;;5.70;1.33;;;;;;;;;;5053262;28;20028;-35
2023/08/20 14:33:33;;;;;;;5.03;1.27;;;;;;;;;;5053556;28;20029;-35